createdAt,value
2017-10-09T00:00:12.269Z,10.47
2017-10-09T00:01:21.432Z,10.38
2017-10-09T00:02:30.264Z,10.44
2017-10-09T00:03:39.092Z,10.42
2017-10-09T00:04:48.223Z,10.36
2017-10-09T00:05:57.050Z,10.42
2017-10-09T00:07:06.215Z,10.41
2017-10-09T00:08:15.044Z,10.32
2017-10-09T00:09:23.873Z,10.41
2017-10-09T00:10:32.905Z,10.4
2017-10-09T00:11:41.738Z,10.36
2017-10-09T00:12:50.575Z,10.42
2017-10-09T00:13:59.407Z,10.41
2017-10-09T00:15:08.239Z,10.4
2017-10-09T00:16:17.270Z,10.4
2017-10-09T00:17:26.101Z,10.41
2017-10-09T00:18:34.929Z,10.4
2017-10-09T00:19:43.761Z,10.38
2017-10-09T00:20:52.593Z,10.3
2017-10-09T00:22:01.627Z,10.4
2017-10-09T00:23:10.459Z,10.34
2017-10-09T00:24:19.292Z,10.3
2017-10-09T00:25:28.454Z,10.38
2017-10-09T00:26:37.626Z,10.44
2017-10-09T00:27:46.859Z,10.47
2017-10-09T00:28:56.025Z,10.41
2017-10-09T00:30:04.856Z,10.4
2017-10-09T00:31:13.689Z,10.41
2017-10-09T00:32:22.523Z,10.42
2017-10-09T00:33:31.354Z,10.41
2017-10-09T00:34:40.190Z,10.44
2017-10-09T00:35:49.350Z,10.41
2017-10-09T00:36:58.182Z,10.36
2017-10-09T00:38:07.014Z,10.26
2017-10-09T00:39:15.894Z,10.36
2017-10-09T00:40:24.732Z,10.3
2017-10-09T00:41:33.564Z,10.41
2017-10-09T00:42:42.397Z,10.45
2017-10-09T00:43:51.230Z,10.29
2017-10-09T00:45:00.212Z,10.3
2017-10-09T00:46:09.042Z,10.33
2017-10-09T00:47:17.874Z,10.32
2017-10-09T00:48:26.706Z,10.29
2017-10-09T00:49:35.536Z,10.25
2017-10-09T00:50:44.368Z,10.36
2017-10-09T00:51:53.201Z,10.32
2017-10-09T00:53:02.032Z,10.23
2017-10-09T00:54:10.865Z,10.3
2017-10-09T00:55:19.699Z,10.25
2017-10-09T00:56:28.779Z,10.32
2017-10-09T00:57:37.609Z,10.22
2017-10-09T00:58:46.441Z,10.33
2017-10-09T00:59:55.274Z,10.34
2017-10-09T01:01:04.109Z,10.23
2017-10-09T01:02:13.192Z,10.26
2017-10-09T01:03:22.026Z,10.2
2017-10-09T01:04:30.859Z,10.3
2017-10-09T01:05:39.693Z,10.23
2017-10-09T01:06:48.523Z,10.23
2017-10-09T01:07:57.501Z,10.27
2017-10-09T01:09:06.337Z,10.26
2017-10-09T01:10:15.166Z,10.23
2017-10-09T01:11:24.670Z,10.3
2017-10-09T01:12:33.503Z,10.25
2017-10-09T01:13:42.485Z,10.25
2017-10-09T01:14:51.315Z,10.25
2017-10-09T01:16:00.146Z,10.32
2017-10-09T01:17:09.028Z,10.38
2017-10-09T01:18:17.859Z,10.23
2017-10-09T01:19:26.946Z,10.32
2017-10-09T01:20:35.773Z,10.25
2017-10-09T01:21:44.603Z,10.22
2017-10-09T01:22:53.435Z,10.2
2017-10-09T01:24:02.269Z,10.25
2017-10-09T01:25:11.501Z,10.2
2017-10-09T01:26:20.332Z,10.29
2017-10-09T01:27:29.164Z,10.25
2017-10-09T01:28:37.996Z,10.2
2017-10-09T01:29:47.166Z,10.15
2017-10-09T01:30:56.147Z,10.22
2017-10-09T01:32:04.976Z,10.15
2017-10-09T01:33:13.807Z,10.11
2017-10-09T01:34:22.639Z,10.11
2017-10-09T01:35:31.471Z,10.11
2017-10-09T01:36:40.602Z,10.17
2017-10-09T01:37:49.432Z,10.18
2017-10-09T01:38:58.265Z,10.09
2017-10-09T01:40:07.094Z,10.07
2017-10-09T01:41:15.924Z,10.07
2017-10-09T01:42:24.806Z,10.2
2017-10-09T01:43:33.637Z,10.12
2017-10-09T01:44:42.466Z,10.07
2017-10-09T01:45:51.300Z,10.07
2017-10-09T01:47:00.131Z,10.04
2017-10-09T01:48:09.596Z,10.05
2017-10-09T01:49:18.426Z,10.07
2017-10-09T01:50:27.258Z,9.94
2017-10-09T01:51:36.091Z,9.94
2017-10-09T01:52:44.922Z,10.05
2017-10-09T01:53:53.903Z,9.94
2017-10-09T01:55:02.731Z,9.96
2017-10-09T01:56:11.562Z,9.93
2017-10-09T01:57:20.390Z,9.93
2017-10-09T01:58:29.222Z,9.9
2017-10-09T01:59:38.201Z,9.9
2017-10-09T02:00:47.033Z,9.9
2017-10-09T02:01:55.863Z,9.84
2017-10-09T02:03:04.694Z,9.79
2017-10-09T02:04:13.524Z,9.79
2017-10-09T02:05:22.505Z,9.81
2017-10-09T02:06:31.335Z,9.91
2017-10-09T02:07:40.169Z,9.78
2017-10-09T02:08:48.996Z,9.79
2017-10-09T02:09:57.824Z,9.74
2017-10-09T02:11:06.858Z,9.81
2017-10-09T02:12:16.017Z,9.78
2017-10-09T02:13:24.848Z,9.64
2017-10-09T02:14:33.682Z,9.65
2017-10-09T02:15:42.507Z,9.66
2017-10-09T02:16:51.820Z,9.64
2017-10-09T02:18:00.656Z,9.66
2017-10-09T02:19:09.486Z,9.64
2017-10-09T02:20:18.317Z,9.5
2017-10-09T02:21:27.149Z,9.54
2017-10-09T02:22:36.177Z,9.51
2017-10-09T02:23:45.010Z,9.54
2017-10-09T02:24:53.844Z,9.43
2017-10-09T02:26:03.002Z,9.4
2017-10-09T02:27:12.175Z,9.39
2017-10-09T02:28:21.308Z,9.43
2017-10-09T02:29:30.135Z,9.4
2017-10-09T02:30:38.964Z,9.32
2017-10-09T02:31:47.795Z,9.4
2017-10-09T02:32:56.626Z,9.38
2017-10-09T02:34:05.607Z,9.33
2017-10-09T02:35:14.436Z,9.35
2017-10-09T02:36:23.266Z,9.38
2017-10-09T02:37:32.099Z,9.29
2017-10-09T02:38:40.928Z,9.23
2017-10-09T02:39:49.916Z,9.21
2017-10-09T02:40:58.742Z,9.26
2017-10-09T02:42:07.570Z,9.24
2017-10-09T02:43:16.400Z,9.31
2017-10-09T02:44:25.233Z,9.2
2017-10-09T02:45:34.364Z,9.2
2017-10-09T02:46:43.194Z,9.21
2017-10-09T02:47:52.024Z,9.2
2017-10-09T02:49:00.857Z,9.11
2017-10-09T02:50:09.686Z,9.18
2017-10-09T02:51:18.566Z,9.18
2017-10-09T02:52:27.396Z,9.21
2017-10-09T02:53:36.226Z,9.11
2017-10-09T02:54:45.058Z,9.17
2017-10-09T02:55:53.891Z,9.08
2017-10-09T02:57:02.918Z,9.15
2017-10-09T02:58:11.748Z,9.1
2017-10-09T02:59:20.577Z,9.13
2017-10-09T03:00:29.408Z,9.08
2017-10-09T03:01:38.239Z,9.05
2017-10-09T03:02:47.270Z,9.04
2017-10-09T03:03:56.099Z,9.11
2017-10-09T03:05:04.931Z,9.13
2017-10-09T03:06:13.761Z,9.14
2017-10-09T03:07:22.921Z,9.08
2017-10-09T03:08:31.852Z,9.05
2017-10-09T03:09:40.684Z,9.11
2017-10-09T03:10:49.511Z,9.05
2017-10-09T03:11:58.342Z,9.05
2017-10-09T03:13:07.173Z,9.11
2017-10-09T03:14:16.155Z,9.01
2017-10-09T03:15:24.991Z,9.05
2017-10-09T03:16:34.152Z,8.94
2017-10-09T03:17:42.997Z,8.95
2017-10-09T03:18:51.817Z,8.95
2017-10-09T03:20:00.856Z,8.91
2017-10-09T03:21:09.737Z,8.76
2017-10-09T03:22:18.566Z,8.77
2017-10-09T03:23:27.397Z,8.8
2017-10-09T03:24:36.225Z,8.74
2017-10-09T03:25:45.107Z,8.66
2017-10-09T03:26:53.938Z,8.79
2017-10-09T03:28:02.769Z,8.7
2017-10-09T03:29:11.598Z,8.59
2017-10-09T03:30:20.427Z,8.58
2017-10-09T03:31:29.747Z,8.59
2017-10-09T03:32:38.576Z,8.62
2017-10-09T03:33:47.404Z,8.59
2017-10-09T03:34:56.234Z,8.55
2017-10-09T03:36:05.080Z,8.47
2017-10-09T03:37:13.945Z,8.43
2017-10-09T03:38:22.776Z,8.37
2017-10-09T03:39:31.654Z,8.34
2017-10-09T03:40:40.483Z,8.41
2017-10-09T03:41:49.313Z,8.44
2017-10-09T03:42:58.344Z,8.3
2017-10-09T03:44:07.174Z,8.29
2017-10-09T03:45:16.006Z,8.3
2017-10-09T03:46:24.835Z,8.38
2017-10-09T03:47:33.662Z,8.3
2017-10-09T03:48:42.542Z,8.34
2017-10-09T03:49:51.373Z,8.33
2017-10-09T03:51:00.201Z,8.33
2017-10-09T03:52:09.027Z,8.3
2017-10-09T03:53:18.195Z,8.34
2017-10-09T03:54:27.223Z,8.26
2017-10-09T03:55:36.052Z,8.25
2017-10-09T03:56:44.884Z,8.2
2017-10-09T03:57:53.714Z,8.16
2017-10-09T03:59:02.875Z,8.22
2017-10-09T04:00:11.751Z,8.12
2017-10-09T04:01:20.579Z,8.08
2017-10-09T04:02:29.409Z,8.07
2017-10-09T04:03:38.240Z,8.11
2017-10-09T04:04:47.072Z,8.15
2017-10-09T04:05:56.149Z,8.04
2017-10-09T04:07:04.978Z,8.11
2017-10-09T04:08:13.805Z,7.97
2017-10-09T04:09:22.635Z,7.97
2017-10-09T04:10:31.464Z,7.83
2017-10-09T04:11:40.447Z,7.92
2017-10-09T04:12:49.611Z,7.93
2017-10-09T04:13:58.440Z,8.01
2017-10-09T04:15:07.278Z,7.98
2017-10-09T04:16:16.106Z,7.87
2017-10-09T04:17:25.087Z,7.9
2017-10-09T04:18:33.920Z,7.87
2017-10-09T04:19:42.744Z,7.97
2017-10-09T04:20:51.571Z,7.97
2017-10-09T04:22:00.401Z,7.87
2017-10-09T04:23:09.329Z,7.79
2017-10-09T04:24:18.159Z,7.79
2017-10-09T04:25:26.988Z,7.9
2017-10-09T04:26:35.816Z,7.86
2017-10-09T04:27:44.645Z,7.79
2017-10-09T04:28:53.626Z,7.8
2017-10-09T04:30:02.456Z,7.79
2017-10-09T04:31:11.285Z,7.82
2017-10-09T04:32:20.114Z,7.79
2017-10-09T04:33:28.947Z,7.85
2017-10-09T04:34:37.821Z,7.79
2017-10-09T04:35:46.650Z,7.77
2017-10-09T04:36:55.481Z,7.67
2017-10-09T04:38:04.311Z,7.69
2017-10-09T04:39:13.138Z,7.71
2017-10-09T04:40:22.117Z,7.67
2017-10-09T04:41:30.944Z,7.69
2017-10-09T04:42:39.772Z,7.67
2017-10-09T04:43:48.602Z,7.63
2017-10-09T04:44:57.432Z,7.63
2017-10-09T04:46:06.413Z,7.6
2017-10-09T04:47:15.242Z,7.68
2017-10-09T04:48:24.073Z,7.58
2017-10-09T04:49:32.903Z,7.61
2017-10-09T04:50:42.061Z,7.57
2017-10-09T04:51:51.188Z,7.57
2017-10-09T04:53:00.019Z,7.57
2017-10-09T04:54:09.181Z,7.6
2017-10-09T04:55:18.010Z,7.61
2017-10-09T04:56:26.841Z,7.58
2017-10-09T04:57:35.771Z,7.53
2017-10-09T04:58:44.599Z,7.58
2017-10-09T04:59:53.428Z,7.52
2017-10-09T05:01:02.258Z,7.55
2017-10-09T05:02:11.085Z,7.52
2017-10-09T05:03:19.966Z,7.49
2017-10-09T05:04:28.794Z,7.49
2017-10-09T05:05:37.953Z,7.5
2017-10-09T05:06:46.784Z,7.48
2017-10-09T05:07:55.947Z,7.55
2017-10-09T05:09:04.927Z,7.46
2017-10-09T05:10:13.756Z,7.46
2017-10-09T05:11:22.583Z,7.43
2017-10-09T05:12:31.410Z,7.5
2017-10-09T05:13:40.239Z,7.45
2017-10-09T05:14:49.316Z,7.42
2017-10-09T05:15:58.146Z,7.46
2017-10-09T05:17:06.978Z,7.42
2017-10-09T05:18:15.800Z,7.42
2017-10-09T05:19:24.630Z,7.39
2017-10-09T05:20:33.656Z,7.28
2017-10-09T05:21:42.483Z,7.37
2017-10-09T05:22:51.310Z,7.32
2017-10-09T05:24:00.140Z,7.13
2017-10-09T05:25:08.977Z,7.28
2017-10-09T05:26:17.854Z,7.23
2017-10-09T05:27:26.684Z,7.34
2017-10-09T05:28:35.518Z,7.21
2017-10-09T05:29:44.343Z,7.32
2017-10-09T05:30:53.508Z,7.31
2017-10-09T05:32:02.635Z,7.2
2017-10-09T05:33:11.464Z,7.17
2017-10-09T05:34:20.295Z,7.27
2017-10-09T05:35:29.123Z,7.34
2017-10-09T05:36:37.952Z,7.31
2017-10-09T05:37:46.930Z,7.28
2017-10-09T05:38:55.756Z,7.43
2017-10-09T05:40:04.586Z,7.34
2017-10-09T05:41:13.416Z,7.37
2017-10-09T05:42:22.245Z,7.34
2017-10-09T05:43:31.172Z,7.3
2017-10-09T05:44:40.001Z,7.28
2017-10-09T05:45:48.830Z,7.28
2017-10-09T05:46:57.661Z,7.32
2017-10-09T05:48:06.488Z,7.31
2017-10-09T05:49:15.368Z,7.3
2017-10-09T05:50:24.201Z,7.35
2017-10-09T05:51:33.031Z,7.3
2017-10-09T05:52:41.861Z,7.17
2017-10-09T05:53:50.690Z,7.28
2017-10-09T05:54:59.719Z,7.32
2017-10-09T05:56:08.547Z,7.32
2017-10-09T05:57:17.376Z,7.34
2017-10-09T05:58:26.206Z,7.34
2017-10-09T05:59:35.036Z,7.34
2017-10-09T06:00:44.065Z,7.37
2017-10-09T06:01:52.894Z,7.35
2017-10-09T06:03:01.727Z,7.45
2017-10-09T06:04:10.560Z,7.42
2017-10-09T06:05:19.389Z,7.48
2017-10-09T06:06:28.704Z,7.46
2017-10-09T06:07:37.533Z,7.5
2017-10-09T06:08:46.363Z,7.53
2017-10-09T06:09:55.190Z,7.55
2017-10-09T06:11:04.019Z,7.58
2017-10-09T06:12:12.945Z,7.53
2017-10-09T06:13:21.773Z,7.69
2017-10-09T06:14:30.605Z,7.64
2017-10-09T06:15:39.431Z,7.68
2017-10-09T06:16:48.260Z,7.72
2017-10-09T06:17:57.139Z,7.63
2017-10-09T06:19:05.967Z,7.69
2017-10-09T06:20:14.796Z,7.71
2017-10-09T06:21:23.629Z,7.8
2017-10-09T06:22:32.458Z,7.74
2017-10-09T06:23:41.489Z,7.83
2017-10-09T06:24:50.325Z,7.77
2017-10-09T06:25:59.158Z,7.79
2017-10-09T06:27:08.649Z,7.8
2017-10-09T06:28:17.477Z,7.82
2017-10-09T06:29:26.407Z,7.83
2017-10-09T06:30:35.237Z,7.92
2017-10-09T06:31:44.065Z,7.92
2017-10-09T06:32:52.894Z,7.86
2017-10-09T06:34:01.725Z,7.89
2017-10-09T06:35:10.853Z,7.87
2017-10-09T06:36:20.016Z,7.85
2017-10-09T06:37:28.847Z,7.92
2017-10-09T06:38:37.674Z,7.93
2017-10-09T06:39:46.506Z,7.86
2017-10-09T06:40:55.636Z,7.86
2017-10-09T06:42:04.463Z,7.97
2017-10-09T06:43:13.294Z,8.07
2017-10-09T06:44:22.125Z,7.98
2017-10-09T06:45:30.954Z,8.05
2017-10-09T06:46:39.830Z,8.1
2017-10-09T06:47:48.660Z,8.12
2017-10-09T06:48:57.491Z,8.1
2017-10-09T06:50:06.322Z,8.11
2017-10-09T06:51:15.152Z,8.18
2017-10-09T06:52:24.182Z,8.16
2017-10-09T06:53:33.014Z,8.18
2017-10-09T06:54:41.844Z,8.1
2017-10-09T06:55:50.672Z,8.11
2017-10-09T06:56:59.501Z,8.12
2017-10-09T06:58:08.434Z,8.11
2017-10-09T06:59:17.264Z,8.12
2017-10-09T07:00:26.094Z,8.12
2017-10-09T07:01:34.923Z,8.08
2017-10-09T07:02:43.752Z,8.11
2017-10-09T07:03:52.734Z,8.11
2017-10-09T07:05:01.564Z,8.11
2017-10-09T07:06:10.395Z,8.08
2017-10-09T07:07:19.223Z,8.11
2017-10-09T07:08:28.053Z,8.08
2017-10-09T07:09:36.882Z,8.07
2017-10-09T07:10:45.711Z,8.08
2017-10-09T07:11:54.540Z,8.08
2017-10-09T07:13:03.373Z,8.08
2017-10-09T07:14:12.204Z,8.07
2017-10-09T07:15:21.086Z,8.1
2017-10-09T07:16:29.915Z,8.12
2017-10-09T07:17:38.744Z,8.15
2017-10-09T07:18:47.574Z,8.07
2017-10-09T07:19:56.404Z,8.08
2017-10-09T07:21:05.433Z,8.1
2017-10-09T07:22:14.264Z,8.11
2017-10-09T07:23:23.096Z,8.12
2017-10-09T07:24:32.256Z,8.12
2017-10-09T07:25:41.085Z,8.15
2017-10-09T07:26:49.967Z,8.15
2017-10-09T07:27:58.796Z,8.11
2017-10-09T07:29:07.625Z,8.16
2017-10-09T07:30:16.454Z,8.18
2017-10-09T07:31:25.285Z,8.25
2017-10-09T07:32:34.115Z,8.25
2017-10-09T07:33:42.944Z,8.28
2017-10-09T07:34:51.774Z,8.22
2017-10-09T07:36:00.602Z,8.22
2017-10-09T07:37:09.433Z,8.33
2017-10-09T07:38:18.513Z,8.3
2017-10-09T07:39:27.339Z,8.3
2017-10-09T07:40:36.172Z,8.29
2017-10-09T07:41:45.003Z,8.3
2017-10-09T07:42:53.835Z,8.33
2017-10-09T07:44:03.099Z,8.29
2017-10-09T07:45:11.931Z,8.34
2017-10-09T07:46:20.762Z,8.33
2017-10-09T07:47:29.594Z,8.38
2017-10-09T07:48:38.426Z,8.4
2017-10-09T07:49:47.409Z,8.4
2017-10-09T07:50:56.240Z,8.41
2017-10-09T07:52:05.072Z,8.48
2017-10-09T07:53:13.911Z,8.45
2017-10-09T07:54:22.735Z,8.55
2017-10-09T07:55:31.665Z,8.59
2017-10-09T07:56:40.496Z,8.55
2017-10-09T07:57:49.327Z,8.56
2017-10-09T07:58:58.154Z,8.66
2017-10-09T08:00:06.989Z,8.76
2017-10-09T08:01:16.122Z,8.71
2017-10-09T08:02:24.953Z,8.76
2017-10-09T08:03:33.782Z,8.73
2017-10-09T08:04:42.611Z,8.74
2017-10-09T08:05:51.443Z,8.79
2017-10-09T08:07:00.325Z,8.87
2017-10-09T08:08:09.488Z,8.84
2017-10-09T08:09:18.318Z,8.95
2017-10-09T08:10:27.149Z,8.92
2017-10-09T08:11:35.980Z,8.91
2017-10-09T08:12:44.960Z,9.1
2017-10-09T08:13:53.788Z,9.11
2017-10-09T08:15:02.621Z,9.08
2017-10-09T08:16:11.810Z,9.1
2017-10-09T08:17:20.641Z,9.21
2017-10-09T08:18:29.620Z,9.18
2017-10-09T08:19:38.449Z,9.24
2017-10-09T08:20:47.282Z,9.26
2017-10-09T08:21:56.113Z,9.26
2017-10-09T08:23:04.944Z,9.36
2017-10-09T08:24:14.027Z,9.42
2017-10-09T08:25:22.856Z,9.4
2017-10-09T08:26:31.686Z,9.56
2017-10-09T08:27:40.876Z,9.51
2017-10-09T08:28:49.708Z,9.5
2017-10-09T08:29:58.689Z,9.58
2017-10-09T08:31:07.520Z,9.68
2017-10-09T08:32:16.349Z,9.81
2017-10-09T08:33:25.178Z,9.81
2017-10-09T08:34:34.013Z,9.94
2017-10-09T08:35:43.141Z,10.02
2017-10-09T08:36:51.970Z,9.97
2017-10-09T08:38:00.803Z,10.05
2017-10-09T08:39:09.636Z,10.04
2017-10-09T08:40:18.470Z,9.96
2017-10-09T08:41:27.403Z,10.02
2017-10-09T08:42:36.236Z,10.18
2017-10-09T08:43:45.069Z,10.2
2017-10-09T08:44:53.902Z,10.17
2017-10-09T08:46:02.733Z,10.2
2017-10-09T08:47:11.672Z,10.27
2017-10-09T08:48:20.502Z,10.3
2017-10-09T08:49:29.333Z,10.27
2017-10-09T08:50:38.164Z,10.3
2017-10-09T08:51:46.997Z,10.3
2017-10-09T08:52:55.889Z,10.41
2017-10-09T08:54:04.722Z,10.41
2017-10-09T08:55:13.552Z,10.41
2017-10-09T08:56:22.387Z,10.41
2017-10-09T08:57:31.218Z,10.44
2017-10-09T08:58:40.247Z,10.41
2017-10-09T08:59:49.077Z,10.4
2017-10-09T09:00:57.912Z,10.56
2017-10-09T09:02:06.746Z,10.53
2017-10-09T09:03:15.579Z,10.61
2017-10-09T09:04:24.562Z,10.59
2017-10-09T09:05:33.396Z,10.68
2017-10-09T09:06:42.228Z,10.7
2017-10-09T09:07:51.061Z,10.76
2017-10-09T09:08:59.897Z,10.76
2017-10-09T09:10:08.928Z,10.82
2017-10-09T09:11:17.762Z,10.91
2017-10-09T09:12:26.595Z,10.88
2017-10-09T09:13:35.433Z,10.94
2017-10-09T09:14:44.266Z,10.86
2017-10-09T09:15:53.348Z,10.91
2017-10-09T09:17:02.179Z,10.92
2017-10-09T09:18:11.010Z,10.94
2017-10-09T09:19:19.842Z,10.94
2017-10-09T09:20:28.675Z,10.91
2017-10-09T09:21:37.709Z,10.92
2017-10-09T09:22:46.544Z,10.96
2017-10-09T09:23:55.378Z,11
2017-10-09T09:25:04.210Z,11.21
2017-10-09T09:26:13.045Z,11.11
2017-10-09T09:27:22.177Z,11.24
2017-10-09T09:28:31.008Z,11.27
2017-10-09T09:29:39.837Z,11.4
2017-10-09T09:30:48.669Z,11.49
2017-10-09T09:31:57.503Z,11.42
2017-10-09T09:33:06.487Z,11.51
2017-10-09T09:34:15.319Z,11.61
2017-10-09T09:35:24.151Z,11.57
2017-10-09T09:36:32.985Z,11.64
2017-10-09T09:37:41.818Z,11.61
2017-10-09T09:38:50.702Z,11.76
2017-10-09T09:39:59.537Z,11.79
2017-10-09T09:41:08.372Z,11.75
2017-10-09T09:42:17.205Z,11.79
2017-10-09T09:43:26.040Z,11.76
2017-10-09T09:44:34.924Z,11.82
2017-10-09T09:45:43.756Z,11.96
2017-10-09T09:46:52.589Z,11.9
2017-10-09T09:48:01.423Z,11.99
2017-10-09T09:49:10.255Z,12.1
2017-10-09T09:50:19.341Z,12.09
2017-10-09T09:51:28.504Z,12.19
2017-10-09T09:52:37.335Z,12.16
2017-10-09T09:53:46.170Z,12.2
2017-10-09T09:54:55.004Z,12.2
2017-10-09T09:56:03.887Z,12.21
2017-10-09T09:57:12.722Z,12.29
2017-10-09T09:58:21.554Z,12.28
2017-10-09T09:59:30.389Z,12.46
2017-10-09T10:00:39.223Z,12.35
2017-10-09T10:01:48.256Z,12.38
2017-10-09T10:02:57.092Z,12.46
2017-10-09T10:04:05.926Z,12.53
2017-10-09T10:05:14.758Z,12.46
2017-10-09T10:06:23.591Z,12.49
2017-10-09T10:07:32.474Z,12.57
2017-10-09T10:08:41.309Z,12.53
2017-10-09T10:09:50.142Z,12.49
2017-10-09T10:10:58.977Z,12.57
2017-10-09T10:12:07.811Z,12.57
2017-10-09T10:13:16.748Z,12.53
2017-10-09T10:14:25.581Z,12.72
2017-10-09T10:15:34.415Z,12.67
2017-10-09T10:16:43.249Z,12.78
2017-10-09T10:17:52.080Z,12.75
2017-10-09T10:19:01.552Z,12.85
2017-10-09T10:20:10.388Z,12.77
2017-10-09T10:21:19.238Z,12.75
2017-10-09T10:22:28.053Z,12.79
2017-10-09T10:23:36.888Z,12.82
2017-10-09T10:24:45.871Z,12.83
2017-10-09T10:25:54.705Z,12.95
2017-10-09T10:27:03.541Z,12.97
2017-10-09T10:28:12.377Z,12.97
2017-10-09T10:29:21.545Z,13.05
2017-10-09T10:30:30.529Z,13.12
2017-10-09T10:31:39.362Z,13.05
2017-10-09T10:32:48.196Z,13.15
2017-10-09T10:33:57.028Z,13.25
2017-10-09T10:35:05.863Z,13.3
2017-10-09T10:36:14.849Z,13.23
2017-10-09T10:37:23.683Z,13.17
2017-10-09T10:38:32.520Z,13.39
2017-10-09T10:39:41.357Z,13.36
2017-10-09T10:40:50.193Z,13.28
2017-10-09T10:41:59.432Z,13.33
2017-10-09T10:43:08.269Z,13.41
2017-10-09T10:44:17.100Z,13.44
2017-10-09T10:45:25.936Z,13.46
2017-10-09T10:46:35.098Z,13.46
2017-10-09T10:47:43.984Z,13.45
2017-10-09T10:48:52.817Z,13.48
2017-10-09T10:50:01.659Z,13.49
2017-10-09T10:51:10.494Z,13.62
2017-10-09T10:52:19.330Z,13.51
2017-10-09T10:53:28.364Z,13.59
2017-10-09T10:54:37.198Z,13.62
2017-10-09T10:55:46.036Z,13.7
2017-10-09T10:56:54.872Z,13.7
2017-10-09T10:58:03.711Z,13.73
2017-10-09T10:59:12.698Z,13.71
2017-10-09T11:00:21.535Z,13.75
2017-10-09T11:01:30.369Z,13.75
2017-10-09T11:02:39.203Z,13.78
2017-10-09T11:03:48.035Z,13.77
2017-10-09T11:04:57.070Z,13.73
2017-10-09T11:06:05.906Z,13.82
2017-10-09T11:07:14.741Z,13.77
2017-10-09T11:08:23.576Z,13.77
2017-10-09T11:09:32.413Z,13.67
2017-10-09T11:10:41.394Z,13.71
2017-10-09T11:11:50.226Z,13.81
2017-10-09T11:12:59.059Z,13.73
2017-10-09T11:14:07.946Z,13.73
2017-10-09T11:15:17.119Z,13.7
2017-10-09T11:16:26.256Z,13.78
2017-10-09T11:17:35.684Z,13.79
2017-10-09T11:18:44.518Z,13.82
2017-10-09T11:19:53.354Z,13.85
2017-10-09T11:21:02.187Z,13.85
2017-10-09T11:22:11.019Z,13.82
2017-10-09T11:23:20.188Z,13.82
2017-10-09T11:24:29.020Z,13.79
2017-10-09T11:25:37.856Z,13.73
2017-10-09T11:26:46.690Z,13.77
2017-10-09T11:27:55.524Z,13.66
2017-10-09T11:29:04.359Z,13.73
2017-10-09T11:30:13.192Z,13.6
2017-10-09T11:31:22.027Z,13.41
2017-10-09T11:32:30.861Z,13.48
2017-10-09T11:33:39.794Z,13.54
2017-10-09T11:34:48.627Z,13.51
2017-10-09T11:35:57.462Z,13.62
2017-10-09T11:37:06.295Z,13.48
2017-10-09T11:38:15.130Z,13.46
2017-10-09T11:39:24.014Z,13.39
2017-10-09T11:40:32.847Z,13.29
2017-10-09T11:41:42.014Z,13.3
2017-10-09T11:42:50.851Z,13.32
2017-10-09T11:43:59.684Z,13.28
2017-10-09T11:45:08.568Z,13.38
2017-10-09T11:46:17.419Z,13.33
2017-10-09T11:47:26.246Z,13.19
2017-10-09T11:48:35.409Z,13.33
2017-10-09T11:49:44.247Z,13.26
2017-10-09T11:50:53.481Z,13.32
2017-10-09T11:52:02.315Z,13.29
2017-10-09T11:53:11.147Z,13.22
2017-10-09T11:54:19.982Z,13.32
2017-10-09T11:55:28.817Z,13.26
2017-10-09T11:56:37.652Z,13.33
2017-10-09T11:57:46.815Z,13.38
2017-10-09T11:58:55.652Z,13.51
2017-10-09T12:00:04.481Z,13.48
2017-10-09T12:01:13.315Z,13.51
2017-10-09T12:02:22.349Z,13.51
2017-10-09T12:03:31.187Z,13.45
2017-10-09T12:04:40.353Z,13.52
2017-10-09T12:05:49.188Z,13.45
2017-10-09T12:06:58.021Z,13.44
2017-10-09T12:08:06.956Z,13.45
2017-10-09T12:09:15.792Z,13.51
2017-10-09T12:10:24.625Z,13.44
2017-10-09T12:11:33.460Z,13.44
2017-10-09T12:12:42.295Z,13.44
2017-10-09T12:13:51.179Z,13.48
2017-10-09T12:15:00.014Z,13.62
2017-10-09T12:16:08.851Z,13.49
2017-10-09T12:17:17.686Z,13.48
2017-10-09T12:18:26.521Z,13.54
2017-10-09T12:19:35.505Z,13.59
2017-10-09T12:20:44.346Z,13.59
2017-10-09T12:21:53.182Z,13.54
2017-10-09T12:23:02.016Z,13.54
2017-10-09T12:24:10.861Z,13.59
2017-10-09T12:25:19.847Z,13.59
2017-10-09T12:26:28.681Z,13.54
2017-10-09T12:27:37.513Z,13.49
2017-10-09T12:28:46.350Z,13.54
2017-10-09T12:29:55.187Z,13.49
2017-10-09T12:31:04.121Z,13.57
2017-10-09T12:32:12.957Z,13.49
2017-10-09T12:33:21.791Z,13.38
2017-10-09T12:34:30.623Z,13.48
2017-10-09T12:35:39.787Z,13.55
2017-10-09T12:36:49.151Z,13.55
2017-10-09T12:37:57.985Z,13.52
2017-10-09T12:39:06.818Z,13.46
2017-10-09T12:40:15.655Z,13.39
2017-10-09T12:41:24.487Z,13.52
2017-10-09T12:42:33.622Z,13.52
2017-10-09T12:43:42.456Z,13.44
2017-10-09T12:44:51.291Z,13.49
2017-10-09T12:46:00.125Z,13.45
2017-10-09T12:47:08.959Z,13.54
2017-10-09T12:48:18.045Z,13.59
2017-10-09T12:49:26.878Z,13.48
2017-10-09T12:50:35.713Z,13.48
2017-10-09T12:51:44.548Z,13.49
2017-10-09T12:52:53.381Z,13.32
2017-10-09T12:54:02.314Z,13.33
2017-10-09T12:55:11.148Z,13.29
2017-10-09T12:56:19.981Z,13.32
2017-10-09T12:57:28.815Z,13.33
2017-10-09T12:58:37.649Z,13.26
2017-10-09T12:59:46.634Z,13.11
2017-10-09T13:00:55.467Z,13.1
2017-10-09T13:02:04.303Z,13.04
2017-10-09T13:03:13.134Z,12.95
2017-10-09T13:04:21.968Z,12.9
2017-10-09T13:05:30.903Z,12.85
2017-10-09T13:06:39.738Z,12.89
2017-10-09T13:07:48.573Z,12.86
2017-10-09T13:08:57.405Z,12.95
2017-10-09T13:10:06.596Z,12.9
2017-10-09T13:11:15.579Z,12.86
2017-10-09T13:12:24.411Z,12.85
2017-10-09T13:13:33.247Z,12.78
2017-10-09T13:14:42.413Z,12.75
2017-10-09T13:15:51.240Z,12.79
2017-10-09T13:17:00.122Z,12.86
2017-10-09T13:18:08.955Z,12.77
2017-10-09T13:19:17.790Z,12.78
2017-10-09T13:20:26.621Z,12.82
2017-10-09T13:21:35.453Z,12.78
2017-10-09T13:22:44.587Z,12.79
2017-10-09T13:23:53.423Z,12.67
2017-10-09T13:25:02.258Z,12.57
2017-10-09T13:26:11.092Z,12.67
2017-10-09T13:27:19.924Z,12.52
2017-10-09T13:28:28.910Z,12.53
2017-10-09T13:29:37.744Z,12.56
2017-10-09T13:30:46.576Z,12.56
2017-10-09T13:31:55.412Z,12.56
2017-10-09T13:33:04.246Z,12.53
2017-10-09T13:34:13.427Z,12.6
2017-10-09T13:35:22.261Z,12.6
2017-10-09T13:36:31.094Z,12.45
2017-10-09T13:37:39.924Z,12.47
2017-10-09T13:38:48.757Z,12.46
2017-10-09T13:39:57.692Z,12.46
2017-10-09T13:41:06.525Z,12.39
2017-10-09T13:42:15.358Z,12.39
2017-10-09T13:43:24.192Z,12.45
2017-10-09T13:44:33.024Z,12.46
2017-10-09T13:45:42.008Z,12.47
2017-10-09T13:46:50.843Z,12.47
2017-10-09T13:47:59.674Z,12.49
2017-10-09T13:49:08.509Z,12.54
2017-10-09T13:50:17.343Z,12.54
2017-10-09T13:51:26.177Z,12.56
2017-10-09T13:52:35.009Z,12.68
2017-10-09T13:53:44.171Z,12.68
2017-10-09T13:54:53.004Z,12.65
2017-10-09T13:56:01.840Z,12.67
2017-10-09T13:57:11.204Z,12.7
2017-10-09T13:58:20.035Z,12.7
2017-10-09T13:59:28.872Z,12.67
2017-10-09T14:00:37.708Z,12.74
2017-10-09T14:01:46.542Z,12.78
2017-10-09T14:02:55.673Z,12.67
2017-10-09T14:04:04.508Z,12.79
2017-10-09T14:05:13.341Z,12.68
2017-10-09T14:06:22.506Z,12.77
2017-10-09T14:07:31.671Z,12.75
2017-10-09T14:08:40.505Z,12.72
2017-10-09T14:09:49.339Z,12.78
2017-10-09T14:10:58.171Z,12.68
2017-10-09T14:12:07.001Z,12.77
2017-10-09T14:13:15.835Z,12.83
2017-10-09T14:14:24.817Z,12.75
2017-10-09T14:15:33.650Z,12.77
2017-10-09T14:16:42.484Z,12.79
2017-10-09T14:17:51.316Z,12.78
2017-10-09T14:19:00.150Z,12.82
2017-10-09T14:20:09.085Z,12.79
2017-10-09T14:21:17.920Z,12.85
2017-10-09T14:22:26.754Z,12.78
2017-10-09T14:23:35.587Z,12.85
2017-10-09T14:24:44.421Z,12.83
2017-10-09T14:25:53.305Z,12.78
2017-10-09T14:27:02.140Z,12.78
2017-10-09T14:28:10.973Z,12.72
2017-10-09T14:29:19.806Z,12.75
2017-10-09T14:30:28.640Z,12.77
2017-10-09T14:40:50.122Z,12.75
2017-10-09T14:41:58.955Z,12.75
2017-10-09T14:43:08.389Z,12.77
2017-10-09T14:44:17.223Z,12.77
2017-10-09T14:45:26.105Z,12.74
2017-10-09T14:46:34.942Z,12.78
2017-10-09T14:47:43.775Z,12.78
2017-10-09T14:48:52.757Z,12.74
2017-10-09T14:50:01.591Z,12.78
2017-10-09T14:51:10.465Z,12.78
2017-10-09T14:52:19.253Z,12.77
2017-10-09T14:53:28.087Z,12.78
2017-10-09T14:54:37.714Z,12.83
2017-10-09T14:55:46.547Z,12.75
2017-10-09T14:56:55.380Z,12.75
2017-10-09T14:58:04.216Z,12.77
2017-10-09T14:59:13.388Z,12.78
2017-10-09T15:00:22.522Z,12.79
2017-10-09T15:01:31.356Z,12.89
2017-10-09T15:02:40.188Z,12.85
2017-10-09T15:03:49.024Z,12.87
2017-10-09T15:04:57.858Z,12.78
2017-10-09T15:06:06.941Z,12.86
2017-10-09T15:07:15.773Z,12.87
2017-10-09T15:08:24.610Z,12.79
2017-10-09T15:09:33.443Z,12.83
2017-10-09T15:10:42.286Z,12.87
2017-10-09T15:11:51.755Z,12.9
2017-10-09T15:13:00.591Z,12.9